^^
LKKV - Karlovy Vary, Czech Republic
Entfernung von Station: O 36km
Aktualisierung: 22.08.2019 02:00
Klar
Klar
 Wind von NNO
Wind: NNO 4 km/h
Temperatur: 10°C
Taupunkt: 7°C
Luftfeuchte: 82%
Luftdruck: 1029 hPa
Zusammenfassung: Klar
Sicht: mehr als 10 km
2019/08/22 00:00 LKKV 220000Z 02002KT CAVOK 10/07 Q1029
EDQM - Hof, Germany
Entfernung von Station: W 40km
Aktualisierung: 21.08.2019 19:50
nicht aktuell
Klar
Klar
 Wind von NNO
Wind: NNO 6 km/h
Temperatur: 18°C
Taupunkt: 6°C
Luftfeuchte: 46%
Luftdruck: 1028 hPa
Zusammenfassung: Klar
Sicht: mehr als 10 km
2019/08/21 17:50 EDQM 211750Z 02003KT CAVOK 18/06 Q1028
 
ETIC - Grafenwoehr, Germany
Entfernung von Station: SSW 72km
Aktualisierung: 21.08.2019 20:56
nicht aktuell
Klar
Klar
 Wind von calm
Wind: Windstill
Temperatur: 15°C
Taupunkt: 11°C
Luftfeuchte: 77%
Luftdruck: 1027.4 hPa
Wolken: Klar
Sicht: 10 km
2019/08/21 18:56 ETIC 211856Z AUTO 00000KT 9999 CLR 15/11 A3034 RMK A02 SLP276 T01540110 $
EDAC - Altenburg-Nobitz, Germany
Entfernung von Station: N 80km
Aktualisierung: 22.08.2019 02:20
Klar
Klar
 Wind von O
Wind: O 2 km/h
Temperatur: 10°C
Taupunkt: 9°C
Luftfeuchte: 94%
Luftdruck: 1028 hPa
Wolken: Klar
Sicht: 10 km
2019/08/22 00:20 EDAC 220020Z AUTO 10001KT 9999 // NCD 10/09 Q1028
 
LKLN - Plzen Line, Czech Republic
Entfernung von Station: SO 88km
Aktualisierung: 22.08.2019 02:00
wolkig
wolkig
 Wind von veränderlich
Wind: veränderlich 4 km/h
Temperatur: 12°C
Taupunkt: 11°C
Luftfeuchte: 94%
Luftdruck: 1028 hPa
Wolken: wolkig
Sicht: 10 km
Wolken Details: wolkig 7315 m
2019/08/22 00:00 LKLN 220000Z AUTO VRB02KT 9999 SCT240 12/11 Q1028
ETIH - Hohenfels (usa-A, Germany
Entfernung von Station: SSW 124km
Aktualisierung: 21.08.2019 19:56
nicht aktuell
Klar
Klar
 Wind von W
Wind: W 6 km/h
Temperatur: 17°C
Taupunkt: 16°C
Luftfeuchte: 94%
Luftdruck: 1027.8 hPa
Wolken: Klar
Sicht: 10 km
2019/08/21 17:56 ETIH 211756Z AUTO 26003KT 9999 CLR 17/16 A3035 RMK AO2 SLP274 T01700155 10216 20170 55003 $
 
EDDE - Erfurt/Bindersleben, Germany
Entfernung von Station: NW 129km
Aktualisierung: 22.08.2019 02:20
Klar
Klar
 Wind von SSW
Wind: SSW 7 km/h
Temperatur: 12°C
Taupunkt: 7°C
Luftfeuchte: 72%
Luftdruck: 1028 hPa
Zusammenfassung: Klar
Sicht: mehr als 10 km
2019/08/22 00:20 EDDE 220020Z 21004KT CAVOK 12/07 Q1028
EDDP - Leipzig/Schkeudidtz, Germany
Entfernung von Station: N 129km
Aktualisierung: 22.08.2019 02:20
Klar
Klar
 Wind von O
Wind: O 13 km/h
Temperatur: 15°C
Taupunkt: 7°C
Luftfeuchte: 59%
Luftdruck: 1028 hPa
Zusammenfassung: Klar
Sicht: mehr als 10 km
2019/08/22 00:20 EDDP 220020Z 09007KT CAVOK 15/07 Q1028 NOSIG
 
EDDN - Nuernberg, Germany
Entfernung von Station: SW 130km
Aktualisierung: 22.08.2019 02:20
Klar
Klar
 Wind von veränderlich
Wind: veränderlich 2 km/h
Temperatur: 12°C
Taupunkt: 11°C
Luftfeuchte: 94%
Luftdruck: 1027 hPa
Zusammenfassung: Klar
Sicht: mehr als 10 km
2019/08/22 00:20 EDDN 220020Z VRB01KT CAVOK 12/11 Q1027
LKPR - Prague/Ruzyne, Czech Republic
Entfernung von Station: O 133km
Aktualisierung: 22.08.2019 02:30
Klar
Klar
 Wind von veränderlich
Wind: veränderlich 2 km/h
Temperatur: 13°C
Taupunkt: 10°C
Luftfeuchte: 82%
Luftdruck: 1028 hPa
Zusammenfassung: Klar
Sicht: mehr als 10 km
2019/08/22 00:30 LKPR 220030Z VRB01KT CAVOK 13/10 Q1028 NOSIG
 
EDDC - Dresden/Klotzsche, Germany
Entfernung von Station: NO 134km
Aktualisierung: 22.08.2019 02:20
Klar
Klar
 Wind von veränderlich
Wind: veränderlich 4 km/h
Temperatur: 13°C
Taupunkt: 11°C
Luftfeuchte: 88%
Luftdruck: 1028 hPa
Zusammenfassung: Klar
Sicht: mehr als 10 km
2019/08/22 00:20 EDDC 220020Z VRB02KT CAVOK 13/11 Q1028
Besucherstatistik
Besucher gesamt: 2.280.821
Besucher heute: 129
Besucher gestern: 1.679
gerade online: 28
Seitenaufrufe diese Seite: 4.564
counter Statistiken